createdAt,value
2023-02-28T00:00:44.584Z,2.04
2023-02-28T00:03:20.978Z,1.67
2023-02-28T00:05:52.192Z,1.41
2023-02-28T00:08:23.284Z,1.22
2023-02-28T00:10:54.176Z,1.05
2023-02-28T00:13:25.323Z,0.92
2023-02-28T00:16:03.135Z,0.80
2023-02-28T00:18:34.212Z,0.70
2023-02-28T00:21:05.431Z,0.62
2023-02-28T00:23:36.819Z,0.54
2023-02-28T00:26:08.001Z,0.49
2023-02-28T00:28:39.145Z,0.43
2023-02-28T00:31:10.243Z,0.38
2023-02-28T00:33:41.216Z,0.33
2023-02-28T00:36:13.591Z,0.29
2023-02-28T00:38:44.652Z,0.25
2023-02-28T00:41:15.888Z,0.21
2023-02-28T00:43:46.920Z,0.18
2023-02-28T00:46:17.933Z,0.25
2023-02-28T00:48:48.854Z,1.51
2023-02-28T00:51:19.830Z,3.14
2023-02-28T00:53:51.287Z,4.25
2023-02-28T00:56:22.369Z,4.79
2023-02-28T00:58:53.061Z,4.17
2023-02-28T01:01:23.909Z,3.28
2023-02-28T01:03:54.768Z,2.60
2023-02-28T01:06:25.717Z,2.11
2023-02-28T01:08:56.597Z,1.72
2023-02-28T01:11:27.748Z,1.43
2023-02-28T01:13:58.988Z,1.18
2023-02-28T01:16:29.677Z,0.94
2023-02-28T01:19:00.662Z,0.73
2023-02-28T01:21:31.782Z,0.54
2023-02-28T01:24:03.158Z,0.38
2023-02-28T01:26:33.951Z,0.23
2023-02-28T01:29:05.030Z,0.10
2023-02-28T01:31:36.284Z,-0.02
2023-02-28T01:34:07.107Z,-0.14
2023-02-28T01:36:39.077Z,0.01
2023-02-28T01:39:10.120Z,1.45
2023-02-28T01:41:41.248Z,2.99
2023-02-28T01:44:25.505Z,4.12
2023-02-28T01:46:56.536Z,4.96
2023-02-28T01:49:27.432Z,5.32
2023-02-28T01:51:58.838Z,4.32
2023-02-28T01:54:32.329Z,3.31
2023-02-28T01:57:04.306Z,2.59
2023-02-28T01:59:38.850Z,2.05
2023-02-28T02:02:10.714Z,1.61
2023-02-28T02:04:43.309Z,1.25
2023-02-28T02:07:15.274Z,0.92
2023-02-28T02:09:48.910Z,0.64
2023-02-28T02:12:25.811Z,0.79
2023-02-28T02:15:03.278Z,2.23
2023-02-28T02:17:37.079Z,3.64
2023-02-28T02:20:21.535Z,4.40
2023-02-28T02:23:10.517Z,3.85
2023-02-28T02:25:42.782Z,2.74
2023-02-28T02:28:21.185Z,1.99
2023-02-28T02:31:15.396Z,1.41
2023-02-28T02:33:52.555Z,0.90
2023-02-28T02:36:25.633Z,0.54
2023-02-28T02:39:01.492Z,0.27
2023-02-28T02:41:36.832Z,0.28
2023-02-28T02:44:14.496Z,1.64
2023-02-28T02:46:46.658Z,3.06
2023-02-28T02:49:18.901Z,4.12
2023-02-28T02:51:50.096Z,4.05
2023-02-28T02:54:23.300Z,2.90
2023-02-28T02:56:52.487Z,2.06
2023-02-28T02:59:25.181Z,1.43
2023-02-28T03:01:58.055Z,0.98
2023-02-28T03:04:30.979Z,0.62
2023-02-28T03:07:03.201Z,0.33
2023-02-28T03:09:36.883Z,0.08
2023-02-28T03:12:09.190Z,-0.14
2023-02-28T03:14:47.404Z,-0.32
2023-02-28T03:17:33.100Z,-0.49
2023-02-28T03:20:08.420Z,-0.28
2023-02-28T03:22:50.757Z,1.27
2023-02-28T03:25:23.504Z,2.81
2023-02-28T03:27:58.177Z,3.89
2023-02-28T03:30:32.034Z,3.85
2023-02-28T03:33:07.191Z,2.83
2023-02-28T03:35:39.507Z,1.87
2023-02-28T03:38:15.024Z,1.23
2023-02-28T03:40:49.142Z,0.75
2023-02-28T03:43:25.009Z,0.39
2023-02-28T03:45:57.389Z,0.08
2023-02-28T03:48:29.870Z,-0.17
2023-02-28T03:51:01.609Z,-0.14
2023-02-28T03:53:34.169Z,1.12
2023-02-28T03:56:08.711Z,2.59
2023-02-28T03:58:41.645Z,3.68
2023-02-28T04:01:15.140Z,4.22
2023-02-28T04:03:46.182Z,3.15
2023-02-28T04:06:19.070Z,2.18
2023-02-28T04:08:50.187Z,1.39
2023-02-28T04:11:23.362Z,0.84
2023-02-28T04:13:54.220Z,0.42
2023-02-28T04:16:34.896Z,0.09
2023-02-28T04:19:07.945Z,-0.20
2023-02-28T04:21:40.557Z,-0.18
2023-02-28T04:24:15.416Z,1.17
2023-02-28T04:26:47.025Z,2.61
2023-02-28T04:29:21.051Z,3.64
2023-02-28T04:31:52.469Z,4.03
2023-02-28T04:34:24.799Z,2.98
2023-02-28T04:37:12.038Z,2.00
2023-02-28T04:39:44.540Z,1.29
2023-02-28T04:42:15.912Z,0.82
2023-02-28T04:44:46.653Z,0.46
2023-02-28T04:47:17.497Z,0.13
2023-02-28T04:49:48.420Z,-0.17
2023-02-28T04:52:19.505Z,-0.42
2023-02-28T04:54:50.492Z,-0.43
2023-02-28T04:57:21.226Z,0.87
2023-02-28T04:59:52.065Z,2.38
2023-02-28T05:02:23.070Z,3.50
2023-02-28T05:04:54.247Z,4.23
2023-02-28T05:07:25.284Z,4.32
2023-02-28T05:09:56.334Z,3.19
2023-02-28T05:12:27.262Z,2.15
2023-02-28T05:14:58.206Z,1.43
2023-02-28T05:17:29.043Z,0.89
2023-02-28T05:20:09.966Z,0.41
2023-02-28T05:22:46.370Z,0.26
2023-02-28T05:25:19.380Z,1.36
2023-02-28T05:27:50.454Z,2.66
2023-02-28T05:30:21.469Z,3.54
2023-02-28T05:32:54.227Z,4.09
2023-02-28T05:35:25.680Z,3.44
2023-02-28T05:37:56.816Z,2.33
2023-02-28T05:40:27.964Z,1.50
2023-02-28T05:42:59.114Z,0.90
2023-02-28T05:45:29.959Z,0.46
2023-02-28T05:48:01.082Z,0.10
2023-02-28T05:50:32.017Z,-0.19
2023-02-28T05:53:02.855Z,-0.18
2023-02-28T05:55:33.797Z,1.13
2023-02-28T05:58:04.945Z,2.50
2023-02-28T06:00:35.882Z,3.60
2023-02-28T06:03:07.085Z,4.24
2023-02-28T06:05:39.730Z,4.38
2023-02-28T06:08:10.571Z,3.33
2023-02-28T06:10:41.335Z,2.29
2023-02-28T06:13:13.567Z,1.54
2023-02-28T06:15:44.370Z,0.95
2023-02-28T06:18:15.414Z,1.23
2023-02-28T06:20:46.012Z,2.63
2023-02-28T06:23:17.256Z,3.73
2023-02-28T06:25:48.892Z,4.29
2023-02-28T06:28:19.931Z,3.42
2023-02-28T06:30:50.696Z,2.35
2023-02-28T06:33:21.864Z,1.50
2023-02-28T06:35:53.994Z,0.95
2023-02-28T06:38:25.478Z,1.79
2023-02-28T06:40:59.708Z,3.15
2023-02-28T06:43:36.525Z,3.77
2023-02-28T06:46:14.842Z,3.06
2023-02-28T06:48:46.989Z,2.06
2023-02-28T06:51:18.720Z,1.37
2023-02-28T06:53:49.687Z,1.23
2023-02-28T06:56:21.532Z,2.35
2023-02-28T06:58:54.021Z,3.35
2023-02-28T07:01:25.699Z,3.68
2023-02-28T07:04:01.940Z,2.82
2023-02-28T07:06:33.614Z,1.92
2023-02-28T07:09:05.500Z,1.28
2023-02-28T07:11:36.546Z,0.98
2023-02-28T07:14:07.486Z,1.96
2023-02-28T07:16:38.826Z,3.17
2023-02-28T07:19:09.456Z,3.24
2023-02-28T07:21:40.603Z,2.33
2023-02-28T07:24:11.846Z,1.61
2023-02-28T07:26:47.706Z,1.06
2023-02-28T07:29:18.495Z,1.03
2023-02-28T07:31:49.338Z,2.30
2023-02-28T07:34:20.157Z,3.59
2023-02-28T07:36:54.939Z,4.03
2023-02-28T07:39:25.834Z,3.17
2023-02-28T07:41:57.433Z,2.32
2023-02-28T07:44:34.015Z,1.72
2023-02-28T07:47:05.406Z,1.55
2023-02-28T07:49:40.292Z,2.80
2023-02-28T07:52:12.352Z,3.83
2023-02-28T07:54:43.076Z,3.37
2023-02-28T07:57:14.638Z,2.63
2023-02-28T07:59:46.183Z,2.12
2023-02-28T08:02:18.366Z,2.08
2023-02-28T08:04:49.708Z,3.42
2023-02-28T08:07:21.247Z,4.26
2023-02-28T08:09:51.781Z,3.74
2023-02-28T08:12:23.098Z,3.03
2023-02-28T08:14:53.704Z,2.47
2023-02-28T08:17:24.499Z,2.13
2023-02-28T08:19:55.119Z,1.91
2023-02-28T08:22:26.094Z,2.08
2023-02-28T08:24:56.874Z,3.40
2023-02-28T08:27:32.949Z,4.55
2023-02-28T08:30:04.232Z,4.15
2023-02-28T08:32:36.049Z,3.41
2023-02-28T08:35:08.080Z,2.98
2023-02-28T08:37:39.079Z,2.68
2023-02-28T08:40:11.255Z,2.49
2023-02-28T08:42:42.410Z,2.36
2023-02-28T08:45:16.749Z,2.26
2023-02-28T08:47:47.724Z,2.20
2023-02-28T08:50:18.766Z,2.18
2023-02-28T08:52:49.706Z,2.17
2023-02-28T08:55:20.781Z,2.19
2023-02-28T08:57:51.919Z,2.22
2023-02-28T09:00:23.986Z,2.25
2023-02-28T09:02:56.017Z,2.34
2023-02-28T09:05:27.162Z,2.48
2023-02-28T09:07:57.984Z,2.50
2023-02-28T09:10:28.877Z,2.49
2023-02-28T09:12:59.598Z,2.54
2023-02-28T09:15:32.067Z,2.62
2023-02-28T09:18:02.776Z,2.69
2023-02-28T09:20:33.632Z,2.76
2023-02-28T09:23:04.586Z,2.79
2023-02-28T09:25:35.657Z,2.82
2023-02-28T09:28:07.064Z,2.87
2023-02-28T09:30:38.069Z,2.85
2023-02-28T09:33:08.699Z,2.81
2023-02-28T09:35:39.747Z,2.75
2023-02-28T09:38:11.318Z,2.67
2023-02-28T09:40:43.768Z,2.59
2023-02-28T09:43:16.918Z,2.59
2023-02-28T09:45:50.315Z,2.47
2023-02-28T09:48:24.414Z,2.37
2023-02-28T09:51:00.101Z,2.40
2023-02-28T09:53:35.124Z,2.48
2023-02-28T09:56:09.259Z,2.56
2023-02-28T09:58:44.494Z,2.57
2023-02-28T10:01:22.093Z,2.61
2023-02-28T10:03:58.302Z,2.65
2023-02-28T10:06:37.108Z,2.67
2023-02-28T10:09:11.781Z,2.70
2023-02-28T10:11:44.079Z,2.70
2023-02-28T10:14:16.761Z,2.77
2023-02-28T10:16:53.176Z,2.79
2023-02-28T10:19:26.583Z,2.79
2023-02-28T10:21:59.145Z,2.78
2023-02-28T10:24:33.131Z,2.82
2023-02-28T10:27:08.558Z,2.89
2023-02-28T10:29:42.018Z,2.99
2023-02-28T10:32:11.077Z,3.00
2023-02-28T10:34:42.184Z,2.95
2023-02-28T10:37:13.970Z,2.90
2023-02-28T10:39:46.946Z,2.82
2023-02-28T10:42:28.240Z,2.71
2023-02-28T10:45:12.857Z,2.67
2023-02-28T10:47:53.901Z,2.68
2023-02-28T10:50:44.737Z,2.66
2023-02-28T10:53:31.934Z,2.61
2023-02-28T10:56:04.989Z,2.57
2023-02-28T10:58:48.894Z,2.58
2023-02-28T11:01:21.748Z,2.60
2023-02-28T11:03:53.763Z,2.66
2023-02-28T11:06:25.953Z,2.70
2023-02-28T11:08:57.816Z,2.67
2023-02-28T11:11:30.732Z,2.67
2023-02-28T11:14:08.302Z,2.72
2023-02-28T11:16:39.880Z,2.75
2023-02-28T11:19:20.182Z,2.84
2023-02-28T11:21:54.848Z,2.87
2023-02-28T11:24:27.328Z,2.91
2023-02-28T11:26:58.938Z,2.94
2023-02-28T11:29:31.922Z,2.97
2023-02-28T11:32:07.599Z,3.01
2023-02-28T11:34:39.133Z,2.99
2023-02-28T11:37:13.806Z,2.98
2023-02-28T11:39:45.111Z,3.04
2023-02-28T11:42:21.462Z,3.07
2023-02-28T11:45:01.406Z,3.11
2023-02-28T11:47:35.443Z,3.12
2023-02-28T11:50:14.130Z,3.11
2023-02-28T11:52:48.007Z,3.15
2023-02-28T11:55:22.161Z,3.21
2023-02-28T11:58:09.507Z,3.27
2023-02-28T12:00:49.705Z,3.24
2023-02-28T12:03:26.183Z,3.23
2023-02-28T12:06:03.210Z,3.18
2023-02-28T12:08:41.778Z,3.15
2023-02-28T12:11:19.566Z,3.21
2023-02-28T12:13:52.891Z,3.27
2023-02-28T12:16:48.175Z,3.25
2023-02-28T12:19:26.407Z,3.22
2023-02-28T12:22:22.250Z,3.22
2023-02-28T12:25:04.276Z,3.22
2023-02-28T12:27:36.638Z,3.23
2023-02-28T12:30:16.233Z,3.24
2023-02-28T12:32:48.841Z,3.23
2023-02-28T12:35:21.951Z,3.20
2023-02-28T12:37:57.418Z,3.23
2023-02-28T12:40:30.632Z,3.23
2023-02-28T12:43:02.994Z,3.24
2023-02-28T12:45:42.043Z,3.33
2023-02-28T12:48:16.215Z,3.43
2023-02-28T12:50:51.828Z,3.49
2023-02-28T12:53:27.946Z,3.52
2023-02-28T12:56:05.565Z,3.55
2023-02-28T12:58:38.599Z,3.60
2023-02-28T13:01:16.978Z,3.65
2023-02-28T13:04:04.237Z,3.69
2023-02-28T13:06:57.796Z,3.73
2023-02-28T13:09:30.747Z,3.83
2023-02-28T13:12:01.453Z,3.91
2023-02-28T13:14:37.787Z,3.85
2023-02-28T13:17:14.348Z,3.71
2023-02-28T13:19:46.225Z,3.66
2023-02-28T13:22:21.357Z,3.70
2023-02-28T13:24:55.366Z,3.74
2023-02-28T13:27:36.271Z,3.81
2023-02-28T13:30:20.643Z,3.94
2023-02-28T13:33:11.896Z,4.60
2023-02-28T13:35:49.669Z,5.94
2023-02-28T13:38:33.762Z,7.15
2023-02-28T13:41:27.176Z,8.12
2023-02-28T13:44:05.821Z,8.93
2023-02-28T13:46:38.550Z,9.83
2023-02-28T13:49:29.203Z,10.45
2023-02-28T13:52:15.412Z,10.74
2023-02-28T13:54:53.768Z,11.02
2023-02-28T13:57:27.951Z,11.03
2023-02-28T14:00:06.611Z,11.09
2023-02-28T14:02:40.866Z,11.32
2023-02-28T14:07:52.841Z,11.83
2023-02-28T14:10:31.468Z,11.82
2023-02-28T14:13:03.977Z,11.50
2023-02-28T14:15:47.952Z,11.31
2023-02-28T14:18:22.082Z,11.20
2023-02-28T14:20:55.828Z,11.17
2023-02-28T14:23:36.511Z,10.98
2023-02-28T14:26:15.062Z,10.87
2023-02-28T14:28:52.330Z,10.86
2023-02-28T14:31:27.648Z,10.78
2023-02-28T14:34:16.153Z,10.79
2023-02-28T14:36:47.338Z,10.97
2023-02-28T14:39:19.604Z,11.13
2023-02-28T14:41:51.057Z,11.33
2023-02-28T14:44:22.797Z,11.37
2023-02-28T14:46:55.945Z,11.36
2023-02-28T14:49:29.913Z,11.48
2023-02-28T14:52:10.661Z,11.57
2023-02-28T14:54:41.937Z,11.57
2023-02-28T14:57:24.030Z,11.60
2023-02-28T15:00:01.646Z,11.66
2023-02-28T15:02:33.954Z,11.59
2023-02-28T15:05:14.000Z,11.55
2023-02-28T15:07:45.132Z,11.38
2023-02-28T15:10:20.001Z,11.29
2023-02-28T15:12:54.962Z,11.06
2023-02-28T15:15:35.921Z,10.73
2023-02-28T15:18:16.699Z,10.59
2023-02-28T15:20:48.133Z,10.28
2023-02-28T15:23:19.630Z,10.03
2023-02-28T15:25:51.001Z,9.91
2023-02-28T15:28:22.863Z,9.79
2023-02-28T15:30:55.673Z,9.75
2023-02-28T15:33:27.677Z,9.43
2023-02-28T15:36:15.776Z,9.09
2023-02-28T15:38:46.510Z,8.89
2023-02-28T15:41:27.196Z,8.64
2023-02-28T15:44:15.627Z,8.43
2023-02-28T15:46:55.679Z,8.04
2023-02-28T15:49:26.538Z,7.66
2023-02-28T15:51:58.796Z,7.39
2023-02-28T15:54:31.384Z,7.14
2023-02-28T15:57:05.573Z,6.92
2023-02-28T15:59:37.638Z,6.62
2023-02-28T16:02:16.931Z,6.17
2023-02-28T16:05:01.662Z,5.61
2023-02-28T16:07:37.476Z,5.10
2023-02-28T16:10:09.352Z,4.69
2023-02-28T16:12:41.292Z,4.32
2023-02-28T16:15:20.077Z,4.00
2023-02-28T16:17:50.906Z,3.68
2023-02-28T16:20:22.634Z,3.43
2023-02-28T16:22:53.527Z,3.19
2023-02-28T16:25:25.914Z,3.00
2023-02-28T16:27:58.705Z,2.83
2023-02-28T16:30:32.585Z,2.64
2023-02-28T16:33:03.319Z,2.49
2023-02-28T16:35:34.401Z,2.35
2023-02-28T16:38:05.239Z,2.22
2023-02-28T16:40:37.807Z,2.10
2023-02-28T16:43:10.710Z,2.00
2023-02-28T16:45:42.531Z,1.92
2023-02-28T16:48:16.180Z,1.83
2023-02-28T16:50:47.225Z,1.77
2023-02-28T16:53:18.352Z,1.71
2023-02-28T16:55:49.535Z,1.64
2023-02-28T16:58:22.994Z,1.59
2023-02-28T17:00:54.223Z,1.53
2023-02-28T17:03:33.868Z,1.47
2023-02-28T17:06:05.017Z,1.43
2023-02-28T17:08:38.141Z,1.39
2023-02-28T17:11:08.902Z,1.35
2023-02-28T17:13:42.479Z,1.32
2023-02-28T17:16:15.829Z,1.28
2023-02-28T17:18:47.068Z,1.24
2023-02-28T17:21:17.966Z,1.20
2023-02-28T17:23:49.149Z,1.16
2023-02-28T17:26:22.298Z,1.12
2023-02-28T17:28:52.756Z,1.09
2023-02-28T17:31:23.508Z,1.05
2023-02-28T17:33:55.670Z,1.03
2023-02-28T17:36:29.030Z,1.01
2023-02-28T17:39:00.403Z,0.98
2023-02-28T17:41:31.550Z,0.96
2023-02-28T17:44:02.696Z,0.94
2023-02-28T17:46:33.948Z,0.92
2023-02-28T17:49:05.188Z,0.91
2023-02-28T17:51:35.922Z,0.88
2023-02-28T17:54:07.808Z,0.86
2023-02-28T17:56:38.637Z,0.84
2023-02-28T17:59:11.648Z,0.81
2023-02-28T18:01:42.934Z,0.78
2023-02-28T18:04:13.994Z,0.76
2023-02-28T18:06:51.128Z,0.74
2023-02-28T18:09:23.265Z,0.73
2023-02-28T18:11:55.913Z,0.72
2023-02-28T18:14:27.563Z,0.70
2023-02-28T18:16:58.835Z,0.67
2023-02-28T18:19:29.797Z,0.64
2023-02-28T18:22:00.928Z,0.63
2023-02-28T18:24:32.044Z,0.61
2023-02-28T18:27:02.874Z,0.60
2023-02-28T18:29:34.538Z,0.58
2023-02-28T18:32:06.272Z,0.57
2023-02-28T18:34:37.294Z,0.56
2023-02-28T18:37:08.116Z,0.55
2023-02-28T18:39:38.734Z,0.53
2023-02-28T18:42:10.269Z,0.51
2023-02-28T18:44:45.929Z,0.50
2023-02-28T18:47:17.038Z,0.49
2023-02-28T18:49:48.277Z,0.47
2023-02-28T18:52:19.511Z,0.45
2023-02-28T18:54:50.560Z,0.42
2023-02-28T18:57:21.803Z,0.40
2023-02-28T18:59:52.806Z,0.38
2023-02-28T19:02:23.896Z,0.43
2023-02-28T19:04:55.099Z,1.60
2023-02-28T19:07:26.007Z,3.27
2023-02-28T19:09:56.850Z,4.53
2023-02-28T19:12:28.254Z,5.40
2023-02-28T19:14:59.228Z,5.67
2023-02-28T19:17:30.385Z,4.71
2023-02-28T19:20:05.618Z,3.75
2023-02-28T19:22:41.531Z,3.01
2023-02-28T19:25:17.777Z,2.46
2023-02-28T19:27:49.328Z,2.02
2023-02-28T19:30:20.746Z,1.66
2023-02-28T19:32:52.181Z,1.36
2023-02-28T19:35:23.463Z,1.10
2023-02-28T19:37:59.973Z,1.28
2023-02-28T19:40:30.992Z,2.82
2023-02-28T19:43:04.234Z,4.19
2023-02-28T19:45:37.091Z,5.19
2023-02-28T19:48:10.263Z,5.42
2023-02-28T19:50:42.275Z,4.40
2023-02-28T19:53:13.257Z,3.44
2023-02-28T19:55:44.297Z,2.70
2023-02-28T19:58:15.378Z,2.12
2023-02-28T20:00:46.081Z,1.66
2023-02-28T20:03:18.802Z,1.65
2023-02-28T20:05:49.820Z,3.01
2023-02-28T20:08:20.729Z,4.24
2023-02-28T20:10:51.794Z,4.52
2023-02-28T20:13:28.110Z,3.34
2023-02-28T20:16:01.870Z,2.28
2023-02-28T20:18:37.144Z,1.58
2023-02-28T20:21:14.062Z,1.08
2023-02-28T20:23:50.488Z,1.70
2023-02-28T20:26:25.971Z,3.22
2023-02-28T20:29:00.802Z,4.44
2023-02-28T20:31:37.187Z,4.82
2023-02-28T20:34:08.797Z,3.73
2023-02-28T20:36:39.855Z,2.70
2023-02-28T20:39:11.450Z,2.01
2023-02-28T20:41:42.350Z,1.52
2023-02-28T20:44:14.898Z,1.15
2023-02-28T20:46:49.872Z,1.13
2023-02-28T20:49:21.146Z,2.52
2023-02-28T20:51:51.836Z,4.01
2023-02-28T20:54:22.841Z,4.56
2023-02-28T20:56:53.310Z,3.65
2023-02-28T20:59:29.560Z,2.60
2023-02-28T21:02:00.610Z,1.78
2023-02-28T21:04:36.966Z,1.48
2023-02-28T21:07:12.280Z,2.70
2023-02-28T21:09:43.454Z,3.98
2023-02-28T21:12:14.493Z,4.89
2023-02-28T21:14:49.729Z,5.14
2023-02-28T21:17:21.225Z,4.07
2023-02-28T21:19:51.928Z,3.02
2023-02-28T21:22:22.971Z,2.27
2023-02-28T21:24:53.692Z,1.72
2023-02-28T21:27:24.832Z,1.28
2023-02-28T21:29:55.633Z,0.98
2023-02-28T21:32:27.099Z,1.88
2023-02-28T21:34:58.744Z,3.29
2023-02-28T21:37:30.362Z,4.43
2023-02-28T21:40:01.061Z,4.78
2023-02-28T21:42:32.667Z,3.72
2023-02-28T21:45:03.699Z,2.66
2023-02-28T21:47:35.130Z,1.92
2023-02-28T21:50:07.289Z,1.39
2023-02-28T21:52:38.603Z,0.96
2023-02-28T21:55:10.287Z,0.87
2023-02-28T21:57:41.570Z,2.16
2023-02-28T22:00:17.015Z,3.59
2023-02-28T22:02:48.528Z,4.60
2023-02-28T22:05:19.831Z,4.92
2023-02-28T22:07:50.876Z,3.86
2023-02-28T22:10:21.753Z,2.80
2023-02-28T22:12:52.868Z,2.04
2023-02-28T22:15:24.313Z,1.47
2023-02-28T22:17:55.255Z,1.00
2023-02-28T22:20:25.773Z,0.87
2023-02-28T22:22:56.745Z,2.14
2023-02-28T22:25:27.877Z,3.54
2023-02-28T22:27:58.992Z,4.45
2023-02-28T22:30:29.755Z,4.77
2023-02-28T22:33:00.652Z,3.74
2023-02-28T22:35:31.396Z,2.70
2023-02-28T22:38:02.190Z,1.95
2023-02-28T22:40:34.284Z,1.39
2023-02-28T22:43:06.844Z,1.17
2023-02-28T22:45:38.461Z,2.39
2023-02-28T22:48:11.430Z,3.78
2023-02-28T22:50:42.024Z,4.37
2023-02-28T22:53:12.802Z,3.30
2023-02-28T22:55:43.334Z,2.17
2023-02-28T22:58:14.199Z,1.43
2023-02-28T23:00:44.835Z,1.21
2023-02-28T23:03:16.351Z,2.38
2023-02-28T23:05:47.030Z,3.65
2023-02-28T23:08:22.613Z,4.60
2023-02-28T23:10:53.550Z,4.89
2023-02-28T23:13:24.799Z,3.78
2023-02-28T23:15:55.635Z,2.68
2023-02-28T23:18:26.492Z,1.91
2023-02-28T23:20:58.752Z,1.30
2023-02-28T23:23:29.678Z,1.14
2023-02-28T23:26:00.388Z,2.39
2023-02-28T23:28:31.802Z,3.70
2023-02-28T23:31:04.716Z,4.60
2023-02-28T23:33:35.753Z,4.84
2023-02-28T23:36:11.554Z,3.73
2023-02-28T23:38:43.395Z,2.53
2023-02-28T23:41:14.624Z,1.68
2023-02-28T23:43:45.775Z,1.30
2023-02-28T23:46:17.872Z,2.39
2023-02-28T23:48:48.645Z,3.67
2023-02-28T23:51:20.631Z,4.52
2023-02-28T23:53:52.563Z,4.76
2023-02-28T23:56:23.979Z,3.71
2023-02-28T23:58:56.003Z,2.65
